Terminal Aerodrome Forecast
Issued by NWS

Home | Current Version | Previous Version | Text Only | Print | Product List | Glossary On
Versions: 1 2 3 4 5 6 7 8 9 10 11 12
053
FTUS43 KAPX 210520
TAFAPN
TAF
KAPN 210520Z 2106/2206 00000KT P6SM FEW250
     FM211600 22004KT P6SM FEW050
     FM220100 00000KT P6SM SKC=

USA.gov is the U.S. government's official web portal to all federal, state and local government web resources and services.